KAKR

Akron Fulton International Airport

Akron, Ohio, USA
METAR KAKR 201354Z AUTO 18010G18KT 10SM SCT060 27/17 A2996 RMK AO2 SLP137 T02670167
Observed Flight Rules
Jul-20 @ 13:54 UTC (52 minutes ago) Visual Flight Rules
Wind Visibility Clouds
180° at 10 knots
 Gusting to 18 knots
10 miles
  • Scattered at 6,000' AGL
Temperatures Readings
Current 27°C / 81°F
Dewpoint 17°C / 63°F
Humidity 54%
Altimeter 29.96" Hg
Pressure 1013.7 hPa
Elevation 363
METAR KAKR 201354Z AUTO 18010G18KT 10SM SCT060 27/17 A2996 RMK AO2 SLP137 T02670167
Observed Flight Rules
Jul-20 @ 13:54 UTC
(52 minutes ago)
VFR
Wind Visibility
180° at 10 knots
 Gusting to 18 knots
10 miles
Clouds
  • Scattered at 6,000' AGL
Temperature Dewpoint
27°C / 81°F 17°C / 63°F
Humidity Altimeter Pressure
54% 29.96" Hg 1013.7 hPa